Flight Track Log - Related Links

Times and Time Zones

All times are in EDT time to prevent confusion due to time zone crossing. See the UAL252 flight status page for this flight to view local times or setup timezone preferences in your user account.

Time Position Orientation Groundspeed Altitude Reporting Facility
EDT Latitude Longitude Course Direction KTS MPH feet Rate Location/Type
Mon 05:01:17 PM 24.9633 -77.3861 308° West 428 493 3,700  Level Miami Center
Mon 05:02:17 PM 24.9614 -77.3103 92° East 294 338 6,100 2,900 Climbing Miami Center
Mon 05:03:17 PM 25.0283 -77.3314 344° North 138 159 9,500 2,650 Climbing Miami Center
Mon 05:04:00 PM 25.3812 -77.9312 318° Northwest  Level FlightAware Approximate
Mon 05:04:17 PM 25.0969 -77.3958 320° Northwest 215 247 11,400  Level Miami Center
Mon 05:05:00 PM 25.4538 -78.0251 308° West  Level FlightAware Approximate
Mon 05:05:17 PM 25.1469 -77.4878 301° West 294 338 13,200  Level Miami Center
Mon 05:06:00 PM 25.5232 -78.1223 308° West  Level FlightAware Approximate
Mon 05:06:17 PM 25.1964 -77.5936 297° West 353 406 15,600  Level Miami Center
Mon 05:07:17 PM 25.2525 -77.7022 300° West 385 443 17,700 1,900 Climbing Miami Center
Mon 05:08:17 PM 25.3061 -77.8150 298° West 405 466 19,400 1,800 Climbing Miami Center
Mon 05:09:17 PM 25.3764 -77.9236 306° West 421 484 21,300 1,700 Climbing Miami Center
Mon 05:10:17 PM 25.4486 -78.0281 307° West 427 491 22,800 850 Climbing Miami Center
Mon 05:11:17 PM 25.5253 -78.1300 310° West 437 503 23,000 400 Climbing Miami Center
Mon 05:12:17 PM 25.6036 -78.2392 309° West 442 509 23,600 950 Climbing Miami Center
Mon 05:13:17 PM 25.6842 -78.3414 311° West 442 509 24,900 1,300 Climbing Miami Center
Mon 05:14:17 PM 25.7539 -78.4578 304° West 447 514 26,200 1,250 Climbing Miami Center
Mon 05:15:17 PM 25.8553 -78.5444 322° Northwest 447 514 27,400 1,100 Climbing Miami Center
Mon 05:16:17 PM 25.9653 -78.6247 327° Northwest 458 527 28,400 1,200 Climbing Miami Center
Mon 05:17:17 PM 26.0853 -78.7119 327° Northwest 470 541 29,800 1,350 Climbing Miami Center
Mon 05:18:17 PM 26.1969 -78.7900 328° Northwest 470 541 31,100 1,100 Climbing Miami Center
Mon 05:19:17 PM 26.3025 -78.8683 326° Northwest 470 541 32,000 400 Climbing Miami Center
Mon 05:20:17 PM 26.4122 -78.9467 327° Northwest 470 541 31,900 -50 Descending Miami Center
Mon 05:21:17 PM 26.5217 -79.0253 327° Northwest 470 541 31,900 550 Level Miami Center
Mon 05:22:17 PM 26.6314 -79.1064 327° Northwest 470 541 33,000 1,200 Climbing Miami Center
Mon 05:23:17 PM 26.7367 -79.1828 327° Northwest 463 533 34,300 1,250 Climbing Miami Center
Mon 05:24:17 PM 26.8419 -79.2594 327° Northwest 456 525 35,500 1,200 Climbing Miami Center
Mon 05:25:17 PM 26.9469 -79.3383 326° Northwest 456 525 36,700 750 Climbing Miami Center
Mon 05:26:17 PM 27.0522 -79.4153 327° Northwest 456 525 37,000 150 Climbing Miami Center
Mon 05:27:17 PM 27.1472 -79.4828 328° Northwest 456 525 37,000  Level Miami Center
Mon 05:28:17 PM 27.2500 -79.5597 326° Northwest 456 525 37,000  Level Miami Center
Mon 05:29:17 PM 27.3697 -79.6397 329° Northwest 456 525 37,000  Level Miami Center
Mon 05:30:17 PM 27.4792 -79.7081 331° Northwest 451 519 37,000  Level Miami Center
Mon 05:31:17 PM 27.5678 -79.7617 332° Northwest 442 509 37,000  Level Miami Center
Mon 05:32:17 PM 27.6875 -79.8350 332° Northwest 442 509 37,000 -50 Level Miami Center
Mon 05:33:17 PM 27.7967 -79.9014 332° Northwest 448 516 36,900  Descending Miami Center
Mon 05:34:17 PM 27.9203 -79.9800 331° Northwest 456 525 37,000 37 Climbing Miami Center
Mon 05:35:58 PM 28.1008 -80.0928 331° Northwest 440 506 37,000  Level Jacksonville Center
Mon 05:36:58 PM 28.2106 -80.1558 333° Northwest 440 506 37,000  Level Jacksonville Center
Mon 05:37:58 PM 28.3344 -80.1947 345° North 445 512 37,000  Level Jacksonville Center
Mon 05:38:58 PM 28.4561 -80.2269 347° North 445 512 37,000  Level Jacksonville Center
Mon 05:39:58 PM 28.5800 -80.2567 348° North 445 512 37,000 -50 Level Jacksonville Center
Mon 05:40:58 PM 28.7017 -80.2892 347° North 450 518 36,900 -50 Descending Jacksonville Center
Mon 05:41:58 PM 28.8211 -80.3167 349° North 450 518 36,900  Level Jacksonville Center
Mon 05:42:58 PM 28.9408 -80.3492 347° North 440 506 36,900  Level Jacksonville Center
Mon 05:43:58 PM 29.0581 -80.3769 348° North 440 506 36,900 50 Level Jacksonville Center
Mon 05:44:58 PM 29.1756 -80.4072 347° North 434 499 37,000  Climbing Jacksonville Center
Mon 05:45:58 PM 29.2931 -80.4400 346° North 434 499 36,900  Descending Jacksonville Center
Mon 05:46:58 PM 29.4106 -80.4706 347° North 434 499 37,000 50 Climbing Jacksonville Center
Mon 05:47:58 PM 29.5156 -80.5014 346° North 434 499 37,000  Level Jacksonville Center
Mon 05:48:58 PM 29.6350 -80.5319 347° North 429 494 37,000  Level Jacksonville Center
Mon 05:49:58 PM 29.7525 -80.5625 347° North 429 494 37,000  Level Jacksonville Center
Mon 05:50:58 PM 29.8678 -80.5908 348° North 429 494 37,000  Level Jacksonville Center
Mon 05:51:58 PM 29.9811 -80.6217 347° North 424 488 37,000  Level Jacksonville Center
Mon 05:52:57 PM 30.1006 -80.6503 348° North 424 488 37,000  Level Jacksonville Center
Mon 05:53:58 PM 30.2161 -80.6836 346° North 424 488 37,000  Level Jacksonville Center
Mon 05:54:57 PM 30.3333 -80.7122 348° North 424 488 37,000  Level Jacksonville Center
Mon 05:55:57 PM 30.4531 -80.7431 347° North 424 488 37,000  Level Jacksonville Center
Mon 05:56:58 PM 30.5661 -80.7719 348° North 424 488 37,000  Level Jacksonville Center
Mon 05:57:58 PM 30.6836 -80.8031 347° North 424 488 37,000  Level Jacksonville Center
Mon 05:58:58 PM 30.7969 -80.8344 347° North 424 488 37,000  Level Jacksonville Center
Mon 05:59:58 PM 30.9103 -80.8658 347° North 411 473 37,000  Level Jacksonville Center
Mon 06:00:58 PM 31.0233 -80.8975 347° North 411 473 37,000  Level Jacksonville Center
Mon 06:01:58 PM 31.1367 -80.9267 348° North 411 473 37,000  Level Jacksonville Center
Mon 06:02:58 PM 31.2539 -80.9581 347° North 416 479 37,000  Level Jacksonville Center
Mon 06:03:57 PM 31.3775 -80.9872 349° North 416 479 37,000  Level Jacksonville Center
Mon 06:04:58 PM 31.4950 -81.0189 347° North 416 479 37,000  Level Jacksonville Center
Mon 06:05:58 PM 31.5978 -81.0486 346° North 416 479 37,000  Level Jacksonville Center
Mon 06:06:58 PM 31.7317 -81.0678 353° North 421 484 37,000  Level Jacksonville Center
Mon 06:07:58 PM 31.8486 -81.0706 359° North 421 484 37,000  Level Jacksonville Center
Mon 06:08:58 PM 31.9697 -81.0656 North 421 484 37,000  Level Jacksonville Center
Mon 06:09:58 PM 32.0908 -81.0706 358° North 421 484 37,000  Level Jacksonville Center
Mon 06:10:58 PM 32.2119 -81.0756 358° North 426 490 37,000 -50 Level Jacksonville Center
Mon 06:11:58 PM 32.3308 -81.0633 North 424 488 36,900 -50 Descending Jacksonville Center
Mon 06:12:58 PM 32.4361 -80.9922 30° Northeast 427 491 36,900 50 Level Jacksonville Center
Mon 06:13:58 PM 32.5436 -80.9211 29° Northeast 432 497 37,000 50 Climbing Jacksonville Center
Mon 06:14:58 PM 32.6575 -80.8644 23° Northeast 438 504 37,000  Level Jacksonville Center
Mon 06:15:58 PM 32.7714 -80.8100 22° Northeast 438 504 37,000 -50 Level Jacksonville Center
Mon 06:16:58 PM 32.8853 -80.7553 22° Northeast 438 504 36,900 -50 Descending Jacksonville Center
Mon 06:17:58 PM 32.9992 -80.7006 22° Northeast 433 498 36,900 50 Level Jacksonville Center
Mon 06:18:58 PM 33.1153 -80.6431 23° Northeast 438 504 37,000 50 Climbing Jacksonville Center
Mon 06:19:58 PM 33.2331 -80.5881 21° North 443 510 37,000 -50 Level Jacksonville Center
Mon 06:20:58 PM 33.3469 -80.5303 23° Northeast 448 516 36,900  Descending Jacksonville Center
Mon 06:21:58 PM 33.4606 -80.4725 23° Northeast 448 516 37,000 50 Climbing Jacksonville Center
Mon 06:22:58 PM 33.5578 -80.4225 23° Northeast 442 509 37,000  Level Jacksonville Center
Mon 06:23:57 PM 33.6714 -80.3644 23° Northeast 437 503 37,000  Level Jacksonville Center
Mon 06:24:57 PM 33.7850 -80.3089 22° Northeast 432 497 37,000  Level Jacksonville Center
Mon 06:25:58 PM 33.9008 -80.2578 20° North 432 497 37,000  Level Jacksonville Center
Mon 06:26:58 PM 34.0219 -80.2667 357° North 423 487 37,000  Level Jacksonville Center
Mon 06:27:58 PM 34.1411 -80.2783 355° North 423 487 37,000  Level Jacksonville Center
Mon 06:28:58 PM 34.2539 -80.2850 357° North 418 481 37,000 -50 Level Jacksonville Center
Mon 06:29:58 PM 34.3667 -80.2917 357° North 407 468 36,900  Descending Jacksonville Center
Mon 06:30:57 PM 34.4772 -80.2933 359° North 402 463 37,000 29 Climbing Jacksonville Center
Mon 06:33:25 PM 34.7333 -80.1586 23° Northeast 417 480 37,000  Level Washington Center
Mon 06:34:24 PM 34.8383 -80.0861 30° Northeast 427 491 37,000  Level Washington Center
Mon 06:35:25 PM 34.9394 -80.0056 33° Northeast 434 499 37,000  Level Washington Center
Mon 06:36:26 PM 35.0403 -79.9300 32° Northeast 434 499 37,000  Level Washington Center
Mon 06:37:25 PM 35.1394 -79.8464 35° Northeast 429 494 37,000  Level Washington Center
Mon 06:38:25 PM 35.2383 -79.7650 34° Northeast 429 494 37,000  Level Washington Center
Mon 06:39:26 PM 35.3392 -79.6839 33° Northeast 429 494 37,000  Level Washington Center
Mon 06:40:26 PM 35.4508 -79.5925 34° Northeast 434 499 37,000  Level Washington Center
Mon 06:41:24 PM 35.5494 -79.5108 34° Northeast 434 499 37,000  Level Washington Center
Mon 06:42:24 PM 35.6522 -79.4289 33° Northeast 441 507 37,000  Level Washington Center
Mon 06:43:26 PM 35.7508 -79.3467 34° Northeast 426 490 37,000  Level Washington Center
Mon 06:44:26 PM 35.8492 -79.2667 33° Northeast 426 490 37,000  Level Washington Center
Mon 06:45:24 PM 35.9497 -79.1842 34° Northeast 431 496 37,000  Level Washington Center
Mon 06:46:24 PM 36.0506 -79.0989 34° Northeast 431 496 37,000  Level Washington Center
Mon 06:47:25 PM 36.1489 -79.0158 34° Northeast 431 496 37,000 50 Level Washington Center
Mon 06:48:25 PM 36.2494 -78.9300 35° Northeast 431 496 37,100  Climbing Washington Center
Mon 06:49:26 PM 36.3497 -78.8467 34° Northeast 431 496 37,000 -50 Descending Washington Center
Mon 06:50:24 PM 36.4500 -78.7631 34° Northeast 431 496 37,000 -303 Level Washington Center
Mon 06:51:25 PM 36.5503 -78.6764 35° Northeast 431 496 36,400 -496 Descending Washington Center
Mon 06:52:25 PM 36.6569 -78.5850 34° Northeast 446 513 36,000 -198 Descending Washington Center
Mon 06:53:26 PM 36.7508 -78.4978 37° Northeast 458 527 36,000  Level Washington Center
Mon 06:54:24 PM 36.8572 -78.4136 32° Northeast 458 527 36,000  Level Washington Center
Mon 06:55:24 PM 36.9722 -78.3086 36° Northeast 458 527 36,000  Level Washington Center
Mon 06:56:26 PM 37.0808 -78.2161 34° Northeast 464 534 36,000  Level Washington Center
Mon 06:57:24 PM 37.1742 -78.1383 34° Northeast 457 526 36,000  Level Washington Center
Mon 06:58:25 PM 37.2825 -78.0456 34° Northeast 457 526 36,000  Level Washington Center
Mon 06:59:25 PM 37.3889 -77.9522 35° Northeast 462 532 36,000  Level Washington Center
Mon 07:00:24 PM 37.4969 -77.8586 34° Northeast 462 532 36,000  Level Washington Center
Mon 07:01:24 PM 37.6031 -77.7650 35° Northeast 462 532 36,000 -98 Level Washington Center
Mon 07:02:26 PM 37.7111 -77.6656 36° Northeast 467 537 35,800 -446 Descending Washington Center
Mon 07:03:25 PM 37.8169 -77.5686 36° Northeast 467 537 35,100 -706 Descending Washington Center
Mon 07:04:25 PM 37.9228 -77.4686 37° Northeast 467 537 34,400 -694 Descending Washington Center
Mon 07:05:26 PM 38.0328 -77.3711 35° Northeast 467 537 33,700 -694 Descending Washington Center
Mon 07:06:26 PM 38.1406 -77.2736 35° Northeast 472 543 33,000 -661 Descending Washington Center
Mon 07:07:24 PM 38.2506 -77.1703 36° Northeast 477 549 32,400 -661 Descending Washington Center
Mon 07:08:24 PM 38.3581 -77.0717 36° Northeast 482 555 31,700 -645 Descending Washington Center
Mon 07:09:25 PM 38.4678 -76.9681 36° Northeast 482 555 31,100 -590 Descending Washington Center
Mon 07:10:26 PM 38.5750 -76.8717 35° Northeast 482 555 30,500 -595 Descending Washington Center
Mon 07:11:26 PM 38.6825 -76.7672 37° Northeast 482 555 29,900 -600 Descending Washington Center
Mon 07:12:26 PM 38.7836 -76.6542 41° Northeast 482 555 29,300 -610 Descending Washington Center
Mon 07:13:24 PM 38.8847 -76.5411 41° Northeast 482 555 28,700 -610 Descending Washington Center
Mon 07:14:24 PM 38.9833 -76.4247 43° Northeast 482 555 28,100 -595 Descending Washington Center
Mon 07:15:25 PM 39.0822 -76.3136 41° Northeast 477 549 27,500 -541 Descending Washington Center
Mon 07:16:26 PM 39.1764 -76.1994 43° Northeast 471 542 27,000 -252 Descending Washington Center
Mon 07:17:24 PM 39.2856 -76.0769 41° Northeast 466 536 27,000 -950 Level Washington Center
Mon 07:18:26 PM 39.3817 -75.9622 43° Northeast 466 536 25,100 -1,721 Descending Washington Center
Mon 07:19:26 PM 39.4778 -75.8525 41° Northeast 466 536 23,500 -1,613 Descending Washington Center
Mon 07:20:25 PM 39.5675 -75.7422 43° Northeast 456 525 21,900 -1,550 Descending Washington Center
Mon 07:21:26 PM 39.6572 -75.6347 43° Northeast 451 519 20,400 -1,613 Descending Washington Center
Mon 07:22:24 PM 39.7447 -75.5294 43° Northeast 434 499 18,700 -1,664 Descending Washington Center
Mon 07:23:25 PM 39.8300 -75.4294 42° Northeast 420 483 17,100 -1,623 Descending Washington Center
Mon 07:24:26 PM 39.9133 -75.3264 43° Northeast 420 483 15,400 -1,686 Descending Washington Center
Mon 07:25:26 PM 39.9942 -75.2286 43° Northeast 407 468 13,700 -1,678 Descending Washington Center
Mon 07:26:24 PM 40.0731 -75.1333 43° Northeast 394 453 12,100 -1,535 Descending Washington Center
Mon 07:27:35 PM 40.1667 -75.0333 39° Northeast 351 404 10,400 -1,296 Descending New York TRACON
Mon 07:28:29 PM 40.2167 -74.9500 52° Northeast 322 371 9,400 -1,150 Descending New York TRACON
Mon 07:29:35 PM 40.2833 -74.8667 44° Northeast 317 365 8,100 -714 Descending New York TRACON
Mon 07:30:35 PM 40.3500 -74.7833 44° Northeast 313 360 7,900 -750 Descending New York TRACON
Mon 07:31:35 PM 40.4000 -74.7000 52° Northeast 304 350 6,600 -905 Descending New York TRACON
Mon 07:32:41 PM 40.4167 -74.5667 81° East 289 333 6,000 -286 Descending New York TRACON
Mon 07:33:41 PM 40.4667 -74.5000 45° Northeast 285 328 6,000  Level New York TRACON
Mon 07:34:41 PM 40.5333 -74.5167 349° North 264 304 6,000  Level New York TRACON
Mon 07:35:41 PM 40.6000 -74.5500 339° North 264 304 6,000  Level New York TRACON
Mon 07:36:41 PM 40.6500 -74.6167 315° West 261 300 6,000  Level New York TRACON
Mon 07:37:41 PM 40.7167 -74.6333 349° North 270 311 6,000  Level New York TRACON
Mon 07:38:41 PM 40.7833 -74.6167 11° North 284 327 6,000 -50 Level New York TRACON
Mon 07:39:41 PM 40.8500 -74.5500 37° Northeast 280 322 5,900 -421 Descending New York TRACON
Mon 07:40:35 PM 40.9000 -74.5000 37° Northeast 276 318 5,200 -450 Descending New York TRACON
Mon 07:41:41 PM 40.9667 -74.4333 37° Northeast 245 282 5,000 -95 Descending New York TRACON
Mon 07:42:41 PM 41.0167 -74.3667 45° Northeast 235 270 5,000  Level New York TRACON
Mon 07:43:41 PM 41.0000 -74.2833 105° East 244 281 5,000 -450 Level New York TRACON
Mon 07:44:41 PM 40.9833 -74.2000 105° East 242 278 4,100 -500 Descending New York TRACON
Mon 07:45:41 PM 40.9500 -74.1500 131° Southeast 203 234 4,000 -500 Descending New York TRACON
Mon 07:46:41 PM 40.9000 -74.1000 143° Southeast 192 221 3,100 -476 Descending New York TRACON
Mon 07:47:47 PM 40.8500 -74.0667 153° Southeast 187 215 3,000 -400 Descending New York TRACON
Mon 07:48:41 PM 40.8167 -74.0833 201° Southwest 168 193 2,300 -684 Descending New York TRACON
Mon 07:49:41 PM 40.7833 -74.1167 217° Southwest 159 183 1,700 -650 Descending New York TRACON
Mon 07:50:41 PM 40.7500 -74.1333 201° Southwest 134 154 1,000 -700 Descending New York TRACON
Mon 07:51:41 PM 40.7167 -74.1500 201° Southwest 130 150 300 -700 Descending New York TRACON

Login

Don't have an account? Register now (free) for customized features, flight alerts, and more!